Aviation Digital Data Service (ADDS)

Output produced by METARs form (1824 UTC 22 November 2017)
found at http://www.aviationweather.gov/adds/metars/
 
TAF TTPP 221600Z 2218/2318 09014KT 9999 SCT018 
     BECMG 2223/2302 00000KT FEW016 
     BECMG 2312/2314 11015KT SCT018 
     PROB40 
     TEMPO 2314/2318 7000 SHRA BKN016
       
TAF TTCP 221600Z 2218/2318 09014KT 9999 FEW018 
     BECMG 2223/2302 09005KT FEW016 
     BECMG 2312/2314 11015KT SCT018